Time;durP1;ratioP1;P1;durP2;ratioP2;P2;SDS_P1;SDS_P2;PMS_P1;PMS_P2;Temp;Humidity;BMP_temperature;BMP_pressure;BME280_temperature;BME280_humidity;BME280_pressure;Samples;Min_cycle;Max_cycle;Signal;HPM_P1;HPM_P2
2022/10/22 00:02:07;;;;;;;144.02;79.07;;;;;;;6.60;77.45;94728.48;1541050;91;21153;-53
2022/10/22 00:04:34;;;;;;;145.53;79.50;;;;;;;6.60;77.38;94727.70;1526147;91;21239;-51
2022/10/22 00:07:02;;;;;;;138.57;74.80;;;;;;;6.61;77.42;94730.02;1528250;91;21747;-52
2022/10/22 00:09:30;;;;;;;134.35;76.90;;;;;;;6.61;77.48;94721.03;1538393;91;21220;-52
2022/10/22 00:11:57;;;;;;;132.25;74.82;;;;;;;6.59;77.57;94721.48;1590056;90;21048;-52
2022/10/22 00:14:24;;;;;;;126.82;71.75;;;;;;;6.61;77.53;94714.98;1548901;90;21279;-51
2022/10/22 00:16:50;;;;;;;124.40;69.65;;;;;;;6.58;77.47;94721.89;1590317;90;20976;-53
2022/10/22 00:19:18;;;;;;;128.80;70.52;;;;;;;6.51;77.42;94715.21;1539726;91;21131;-52
2022/10/22 00:21:45;;;;;;;132.82;70.97;;;;;;;6.44;77.58;94711.23;1533434;92;21017;-52
2022/10/22 00:24:12;;;;;;;124.42;66.60;;;;;;;6.42;77.53;94710.89;1541029;91;21546;-53
2022/10/22 00:26:39;;;;;;;125.00;66.33;;;;;;;6.46;77.55;94706.13;1573917;90;21920;-53
2022/10/22 00:29:06;;;;;;;124.62;67.15;;;;;;;6.51;77.63;94705.03;1540608;91;21137;-52
2022/10/22 00:31:33;;;;;;;123.38;68.12;;;;;;;6.57;77.87;94692.44;1553480;90;21113;-53
2022/10/22 00:34:00;;;;;;;126.85;69.95;;;;;;;6.58;77.96;94691.83;1544855;91;21112;-52
2022/10/22 00:36:28;;;;;;;128.00;72.22;;;;;;;6.57;77.75;94701.22;1565029;90;21088;-51
2022/10/22 00:38:55;;;;;;;130.67;67.70;;;;;;;6.53;77.92;94701.28;1539702;91;21878;-52
2022/10/22 00:41:21;;;;;;;133.70;72.37;;;;;;;6.54;77.91;94701.45;1554206;90;21107;-52
2022/10/22 00:44:01;;;;;;;150.32;74.87;;;;;;;6.49;77.88;94688.30;1535677;91;21051;-52
2022/10/22 00:46:28;;;;;;;135.22;70.83;;;;;;;6.44;78.10;94688.80;1587399;89;21278;-51
2022/10/22 00:48:56;;;;;;;135.57;73.02;;;;;;;6.48;78.32;94690.09;1538077;90;21018;-52
2022/10/22 00:51:26;;;;;;;112.00;64.27;;;;;;;6.51;78.53;94694.72;1569342;90;21195;-52
2022/10/22 00:53:58;;;;;;;115.57;62.53;;;;;;;6.55;78.55;94699.50;1545302;91;20986;-51
2022/10/22 00:56:25;;;;;;;119.30;67.05;;;;;;;6.52;78.42;94689.42;1563618;90;21009;-51
2022/10/22 00:58:56;;;;;;;119.77;66.22;;;;;;;6.48;78.45;94685.39;1539202;92;21066;-51
2022/10/22 01:01:29;;;;;;;134.20;72.58;;;;;;;6.50;78.58;94692.56;1568472;90;20985;-51
2022/10/22 01:03:56;;;;;;;132.37;70.95;;;;;;;6.54;78.60;94697.36;1538198;91;21749;-52
2022/10/22 01:06:28;;;;;;;140.12;72.50;;;;;;;6.56;78.56;94691.48;1554603;90;21001;-51
2022/10/22 01:09:01;;;;;;;129.03;64.07;;;;;;;6.57;78.52;94691.07;1542010;91;21023;-51
2022/10/22 01:11:54;;;;;;;111.55;62.03;;;;;;;6.56;78.47;94698.31;1591936;89;21020;-52
2022/10/22 01:15:02;;;;;;;109.37;58.13;;;;;;;6.55;78.52;94702.23;1587331;89;21013;-51
2022/10/22 01:17:57;;;;;;;115.52;60.58;;;;;;;6.55;78.60;94700.88;1523431;92;21043;-51
2022/10/22 01:20:50;;;;;;;110.70;61.70;;;;;;;6.56;78.63;94686.02;1526275;93;21072;-52
2022/10/22 01:24:08;;;;;;;109.70;60.60;;;;;;;6.56;78.36;94694.97;1514569;92;21038;-52
2022/10/22 01:27:10;;;;;;;107.65;58.60;;;;;;;6.55;78.32;94694.80;1545259;91;21234;-52
2022/10/22 01:29:44;;;;;;;110.85;59.83;;;;;;;6.59;78.49;94687.90;1579386;89;21053;-52
2022/10/22 01:32:16;;;;;;;121.35;61.13;;;;;;;6.64;78.52;94679.19;1544185;91;21373;-53
2022/10/22 01:34:46;;;;;;;113.83;62.35;;;;;;;6.72;78.33;94684.08;1570467;89;21107;-52
2022/10/22 01:37:13;;;;;;;118.97;65.35;;;;;;;6.81;78.36;94675.30;1562949;90;21028;-52
2022/10/22 01:39:40;;;;;;;96.10;54.70;;;;;;;6.87;78.14;94678.48;1521020;91;21042;-51
2022/10/22 01:42:07;;;;;;;95.07;52.53;;;;;;;6.90;77.87;94676.26;1579613;89;21528;-51
2022/10/22 01:44:36;;;;;;;84.58;48.75;;;;;;;6.78;77.79;94669.32;1580855;90;21281;-53
2022/10/22 01:47:41;;;;;;;82.22;50.65;;;;;;;6.65;78.09;94676.62;1569671;90;20997;-52
2022/10/22 01:50:17;;;;;;;96.30;51.95;;;;;;;6.56;78.45;94670.38;1531748;91;21546;-52
2022/10/22 01:53:25;;;;;;;87.35;48.63;;;;;;;6.57;78.79;94657.48;1579416;89;21021;-52
2022/10/22 01:56:23;;;;;;;104.20;57.03;;;;;;;6.64;78.58;94657.33;1586794;89;21099;-54
2022/10/22 01:59:09;;;;;;;94.95;53.50;;;;;;;6.66;78.89;94657.09;1533792;91;21301;-52
2022/10/22 02:02:01;;;;;;;107.60;57.08;;;;;;;6.65;78.70;94657.50;1548299;91;21100;-52
2022/10/22 02:04:50;;;;;;;109.27;60.97;;;;;;;6.59;78.89;94646.91;1532412;91;21550;-52
2022/10/22 02:07:20;;;;;;;101.67;58.68;;;;;;;6.59;79.12;94641.44;1541582;91;21127;-52
2022/10/22 02:09:47;;;;;;;106.00;59.60;;;;;;;6.61;79.04;94643.92;1577777;89;21092;-54
2022/10/22 02:12:14;;;;;;;92.17;50.80;;;;;;;6.57;79.16;94634.26;1538379;91;21025;-53
2022/10/22 02:14:42;;;;;;;94.80;53.28;;;;;;;6.58;79.22;94641.27;1576066;89;21131;-53
2022/10/22 02:17:13;;;;;;;97.00;57.20;;;;;;;6.59;79.14;94645.53;1529651;92;21063;-53
2022/10/22 02:19:45;;;;;;;102.43;58.27;;;;;;;6.58;79.32;94645.36;1572698;89;21238;-52
2022/10/22 02:22:12;;;;;;;109.15;61.70;;;;;;;6.61;79.62;94647.25;1581133;89;21135;-52
2022/10/22 02:24:39;;;;;;;95.83;55.48;;;;;;;6.61;79.41;94641.78;1575986;90;21791;-52
2022/10/22 02:27:23;;;;;;;91.57;53.30;;;;;;;6.61;79.46;94643.14;1546115;91;21044;-53
2022/10/22 02:30:01;;;;;;;102.95;56.83;;;;;;;6.62;79.40;94636.48;1573763;90;21088;-51
2022/10/22 02:32:33;;;;;;;98.33;56.15;;;;;;;6.64;79.45;94633.51;1578333;90;21618;-51
2022/10/22 02:35:00;;;;;;;120.15;55.45;;;;;;;6.70;79.58;94633.17;1543374;91;21153;-52
2022/10/22 02:37:26;;;;;;;107.72;56.58;;;;;;;6.77;79.42;94626.78;1581477;90;21151;-52
2022/10/22 02:39:53;;;;;;;98.50;53.70;;;;;;;6.81;79.52;94626.87;1540712;91;21136;-51
2022/10/22 02:42:20;;;;;;;115.97;58.17;;;;;;;6.89;79.21;94623.38;1523431;92;21625;-53
2022/10/22 02:44:47;;;;;;;102.90;58.60;;;;;;;6.90;79.21;94617.47;1544234;91;21113;-52
2022/10/22 02:47:14;;;;;;;99.62;55.03;;;;;;;6.94;79.12;94610.56;1574310;89;21060;-53
2022/10/22 02:49:41;;;;;;;101.05;54.38;;;;;;;6.99;79.22;94612.77;1542231;91;21180;-53
2022/10/22 02:52:08;;;;;;;94.92;53.10;;;;;;;7.05;78.81;94606.37;1587705;90;21071;-51
2022/10/22 02:54:35;;;;;;;93.35;54.05;;;;;;;7.06;78.53;94610.64;1533445;92;21527;-53
2022/10/22 02:57:02;;;;;;;87.08;51.63;;;;;;;7.05;78.55;94604.25;1517687;94;21518;-53
2022/10/22 02:59:29;;;;;;;79.90;47.10;;;;;;;7.06;78.36;94605.78;1541996;91;21099;-52
2022/10/22 03:01:55;;;;;;;84.72;46.33;;;;;;;7.05;78.28;94611.09;1527088;92;21859;-52
2022/10/22 03:04:22;;;;;;;87.80;49.80;;;;;;;7.06;78.12;94604.42;1569978;90;21020;-50
2022/10/22 03:06:49;;;;;;;79.92;45.75;;;;;;;6.98;78.11;94605.19;1539447;91;21038;-52
2022/10/22 03:09:16;;;;;;;78.20;45.73;;;;;;;6.86;78.34;94600.39;1573280;89;21132;-53
2022/10/22 03:11:43;;;;;;;78.42;42.53;;;;;;;6.75;78.70;94604.56;1529538;92;21011;-52
2022/10/22 03:14:11;;;;;;;69.27;39.85;;;;;;;6.67;78.99;94618.23;1571160;89;21095;-52
2022/10/22 03:16:39;;;;;;;71.77;38.17;;;;;;;6.62;79.29;94607.79;1543441;92;21470;-54
2022/10/22 03:19:06;;;;;;;68.37;39.23;;;;;;;6.62;79.27;94611.30;1557390;89;22116;-52
2022/10/22 03:21:52;;;;;;;70.03;37.65;;;;;;;6.70;79.25;94607.81;1535205;90;21082;-54
2022/10/22 03:24:27;;;;;;;69.67;39.15;;;;;;;6.73;79.04;94605.59;1511331;92;21566;-51
2022/10/22 03:26:54;;;;;;;70.57;38.33;;;;;;;6.75;79.32;94600.47;1575581;89;21337;-53
2022/10/22 03:29:21;;;;;;;73.52;39.00;;;;;;;6.77;79.30;94596.13;1535020;91;21492;-53
2022/10/22 03:31:48;;;;;;;65.40;38.25;;;;;;;6.79;79.00;94591.58;1570513;89;21024;-51
2022/10/22 03:34:15;;;;;;;69.15;39.83;;;;;;;6.72;78.74;94591.14;1574026;89;21524;-53
2022/10/22 03:36:42;;;;;;;75.22;38.85;;;;;;;6.67;78.88;94591.66;1541439;92;21023;-53
2022/10/22 03:39:09;;;;;;;76.95;40.90;;;;;;;6.63;78.92;94586.09;1587608;90;21325;-51
2022/10/22 03:41:36;;;;;;;73.95;38.98;;;;;;;6.66;79.12;94589.37;1534539;91;21106;-53
2022/10/22 03:44:04;;;;;;;58.13;34.05;;;;;;;6.66;79.19;94579.80;1527249;93;21563;-53
2022/10/22 03:46:31;;;;;;;67.58;38.28;;;;;;;6.67;79.24;94579.97;1544100;93;21032;-53
2022/10/22 03:48:58;;;;;;;68.28;38.55;;;;;;;6.62;79.33;94570.30;1504620;92;21109;-52
2022/10/22 03:51:27;;;;;;;107.05;61.95;;;;;;;6.64;79.27;94567.13;1577687;89;21273;-53
2022/10/22 03:53:54;;;;;;;73.00;42.00;;;;;;;6.62;79.31;94571.67;1590190;90;20981;-52
2022/10/22 03:56:22;;;;;;;63.85;38.02;;;;;;;6.64;79.18;94561.66;1532803;92;21133;-51
2022/10/22 03:58:49;;;;;;;73.28;39.83;;;;;;;6.60;79.22;94551.42;1577640;90;21058;-52
2022/10/22 04:01:15;;;;;;;83.15;38.92;;;;;;;6.53;79.49;94555.08;1540020;92;20969;-52
2022/10/22 04:03:42;;;;;;;68.47;38.75;;;;;;;6.44;79.65;94566.42;1554277;90;21182;-52
2022/10/22 04:06:11;;;;;;;67.08;37.63;;;;;;;6.34;80.02;94560.01;1544643;91;21102;-52
2022/10/22 04:08:38;;;;;;;70.37;40.60;;;;;;;6.25;80.09;94551.64;1580372;89;21036;-52
2022/10/22 04:11:05;;;;;;;76.35;42.98;;;;;;;6.15;80.29;94560.06;1518895;91;21673;-54
2022/10/22 04:13:34;;;;;;;85.32;43.58;;;;;;;6.08;80.58;94557.47;1572658;89;20996;-52
2022/10/22 04:16:15;;;;;;;81.97;41.25;;;;;;;6.00;80.95;94560.19;1527867;92;21274;-52
2022/10/22 04:18:43;;;;;;;85.10;40.58;;;;;;;5.99;81.22;94549.84;1575599;89;20989;-51
2022/10/22 04:21:11;;;;;;;66.05;39.83;;;;;;;6.02;81.31;94550.98;1537094;91;21024;-53
2022/10/22 04:23:46;;;;;;;80.17;41.53;;;;;;;6.04;81.19;94552.11;1578288;89;21606;-51
2022/10/22 04:26:13;;;;;;;72.78;40.38;;;;;;;6.01;81.42;94546.71;1547768;91;21003;-52
2022/10/22 04:28:41;;;;;;;66.77;35.40;;;;;;;6.02;81.42;94539.48;1579056;89;21286;-52
2022/10/22 04:31:09;;;;;;;72.80;38.55;;;;;;;5.98;81.09;94545.58;1539369;92;21171;-52
2022/10/22 04:33:36;;;;;;;63.33;35.48;;;;;;;5.93;81.24;94539.88;1579782;90;21083;-52
2022/10/22 04:36:15;;;;;;;56.40;34.63;;;;;;;5.86;81.21;94542.16;1591054;90;21041;-52
2022/10/22 04:38:45;;;;;;;61.00;37.55;;;;;;;5.84;81.59;94534.98;1540952;91;21038;-52
2022/10/22 04:41:15;;;;;;;56.18;33.33;;;;;;;5.86;81.54;94530.45;1536058;93;21347;-51
2022/10/22 04:43:42;;;;;;;57.53;31.40;;;;;;;5.86;81.74;94542.73;1540247;91;21042;-52
2022/10/22 04:46:09;;;;;;;52.67;28.47;;;;;;;5.87;81.62;94538.81;1494932;93;21054;-53
2022/10/22 04:48:39;;;;;;;56.08;31.93;;;;;;;5.86;81.50;94530.45;1546784;91;21210;-52
2022/10/22 04:51:08;;;;;;;74.55;33.18;;;;;;;5.85;81.46;94524.82;1571410;89;21060;-52
2022/10/22 04:53:36;;;;;;;67.17;28.17;;;;;;;5.83;81.29;94527.20;1537904;92;21187;-51
2022/10/22 04:56:20;;;;;;;46.83;25.32;;;;;;;5.78;81.41;94525.73;1573143;89;21128;-53
2022/10/22 04:58:57;;;;;;;38.38;20.62;;;;;;;5.71;81.55;94522.34;1541650;91;21030;-52
2022/10/22 05:01:36;;;;;;;40.85;22.05;;;;;;;5.66;81.48;94519.54;1588213;90;21491;-53
2022/10/22 05:04:04;;;;;;;52.43;27.35;;;;;;;5.61;81.55;94529.56;1540808;91;21113;-53
2022/10/22 05:06:33;;;;;;;54.77;28.07;;;;;;;5.56;81.77;94520.52;1539849;93;21104;-52
2022/10/22 05:09:04;;;;;;;39.63;21.10;;;;;;;5.56;82.01;94523.82;1537483;91;21093;-53
2022/10/22 05:11:36;;;;;;;39.60;21.27;;;;;;;5.59;81.85;94521.64;1583949;90;21088;-52
2022/10/22 05:14:05;;;;;;;55.63;26.35;;;;;;;5.58;81.67;94516.77;1570210;89;21147;-53
2022/10/22 05:16:32;;;;;;;61.25;28.57;;;;;;;5.62;82.04;94518.06;1562127;89;21490;-54
2022/10/22 05:19:00;;;;;;;59.35;30.43;;;;;;;5.67;81.83;94527.11;1557899;90;21196;-52
2022/10/22 05:21:27;;;;;;;59.83;33.45;;;;;;;5.69;81.79;94527.46;1545427;89;21102;-56
2022/10/22 05:23:56;;;;;;;65.03;33.02;;;;;;;5.70;81.71;94531.73;1558360;90;21063;-54
2022/10/22 05:26:24;;;;;;;62.27;32.95;;;;;;;5.70;81.79;94535.82;1548413;91;21071;-57
2022/10/22 05:28:52;;;;;;;65.17;29.20;;;;;;;5.70;81.54;94531.14;1537227;92;21097;-53
2022/10/22 05:31:19;;;;;;;57.88;30.45;;;;;;;5.71;81.42;94535.99;1572558;90;21238;-52
2022/10/22 05:33:46;;;;;;;51.30;30.75;;;;;;;5.73;81.50;94530.88;1581855;90;21069;-55
2022/10/22 05:36:17;;;;;;;56.85;29.32;;;;;;;5.79;81.63;94535.45;1560650;91;21471;-53
2022/10/22 05:38:46;;;;;;;48.60;26.90;;;;;;;5.80;81.20;94538.36;1575415;90;21033;-53
2022/10/22 05:41:18;;;;;;;43.48;24.77;;;;;;;5.75;81.02;94542.17;1582104;89;21077;-54
2022/10/22 05:43:45;;;;;;;87.45;33.90;;;;;;;5.69;80.93;94547.34;1597352;88;21321;-53
2022/10/22 05:46:15;;;;;;;71.00;34.25;;;;;;;5.65;81.29;94554.06;1598300;88;21031;-52
2022/10/22 05:48:43;;;;;;;81.30;32.98;;;;;;;5.63;81.48;94555.83;1569377;90;21598;-52
2022/10/22 05:51:11;;;;;;;82.08;32.35;;;;;;;5.59;81.64;94561.95;1566126;89;21575;-53
2022/10/22 05:53:41;;;;;;;84.75;36.10;;;;;;;5.56;81.89;94560.07;1566930;89;21236;-53
2022/10/22 05:56:14;;;;;;;93.85;39.45;;;;;;;5.58;82.14;94562.39;1547380;90;21027;-54
2022/10/22 05:58:44;;;;;;;54.50;28.83;;;;;;;5.61;82.44;94562.30;1562192;90;21121;-55
2022/10/22 06:01:14;;;;;;;77.80;37.63;;;;;;;5.69;82.49;94565.66;1568878;90;21093;-57
2022/10/22 06:03:43;;;;;;;92.85;39.73;;;;;;;5.73;82.37;94563.05;1569056;89;21892;-53
2022/10/22 06:06:24;;;;;;;73.05;35.60;;;;;;;5.78;82.36;94559.06;1565449;89;21088;-54
2022/10/22 06:08:51;;;;;;;85.10;37.23;;;;;;;5.86;82.27;94565.94;1571682;90;21288;-54
2022/10/22 06:11:19;;;;;;;80.40;38.48;;;;;;;5.89;82.36;94564.51;1569346;90;21142;-53
2022/10/22 06:13:48;;;;;;;73.95;38.58;;;;;;;5.94;82.22;94564.62;1566792;90;21060;-53
2022/10/22 06:16:15;;;;;;;72.40;39.25;;;;;;;6.00;82.20;94561.55;1563523;89;21084;-53
2022/10/22 06:18:42;;;;;;;82.05;37.30;;;;;;;6.09;82.21;94564.47;1572933;90;21901;-54
2022/10/22 06:21:12;;;;;;;76.85;36.48;;;;;;;6.23;82.15;94565.53;1569716;89;21166;-53
2022/10/22 06:23:39;;;;;;;72.55;35.88;;;;;;;6.37;81.75;94559.77;1531357;91;21061;-54
2022/10/22 06:26:07;;;;;;;84.90;39.23;;;;;;;6.48;81.33;94561.06;1564760;90;21574;-55
2022/10/22 06:28:36;;;;;;;84.35;42.10;;;;;;;6.59;80.89;94562.18;1571474;89;21643;-53
2022/10/22 06:31:03;;;;;;;76.40;42.73;;;;;;;6.68;80.43;94555.55;1575248;90;21063;-54
2022/10/22 06:33:31;;;;;;;68.87;38.42;;;;;;;6.76;80.29;94554.95;1579544;90;21174;-54
2022/10/22 06:36:10;;;;;;;81.97;42.25;;;;;;;6.89;80.19;94555.02;1553455;91;21135;-52
2022/10/22 06:38:39;;;;;;;86.45;47.90;;;;;;;7.04;79.44;94553.48;1574313;90;21617;-53
2022/10/22 06:41:13;;;;;;;89.15;47.93;;;;;;;7.15;79.20;94541.83;1577242;90;21561;-52
2022/10/22 06:43:46;;;;;;;138.45;62.95;;;;;;;7.32;78.89;94540.60;1575486;90;21538;-53
2022/10/22 06:46:15;;;;;;;129.53;65.37;;;;;;;7.51;78.23;94538.33;1573673;90;21984;-54
2022/10/22 06:48:42;;;;;;;119.30;56.13;;;;;;;7.65;77.78;94537.16;1582305;90;21010;-54
2022/10/22 06:51:11;;;;;;;87.97;44.50;;;;;;;7.78;77.20;94537.39;1576790;90;21067;-54
2022/10/22 06:53:39;;;;;;;101.15;49.15;;;;;;;7.88;76.65;94529.46;1577022;90;21239;-58
2022/10/22 06:56:10;;;;;;;91.92;46.00;;;;;;;8.04;75.88;94530.76;1579614;90;21100;-55
2022/10/22 06:58:37;;;;;;;87.05;42.53;;;;;;;8.22;75.41;94528.91;1573359;90;21150;-53
2022/10/22 07:01:12;;;;;;;113.72;52.60;;;;;;;8.42;74.86;94529.47;1573609;90;21065;-53
2022/10/22 07:03:39;;;;;;;94.50;49.23;;;;;;;8.62;74.21;94514.94;1578005;90;21006;-54
2022/10/22 07:06:09;;;;;;;109.00;48.80;;;;;;;8.76;73.28;94526.22;1579642;90;21090;-53
2022/10/22 07:08:35;;;;;;;88.12;47.80;;;;;;;8.84;72.94;94526.75;1577761;90;21007;-55
2022/10/22 07:11:18;;;;;;;83.80;44.67;;;;;;;8.92;72.67;94535.07;1577881;89;21498;-55
2022/10/22 07:13:45;;;;;;;99.07;48.38;;;;;;;9.05;72.39;94541.93;1574096;90;21132;-55
2022/10/22 07:16:14;;;;;;;86.00;47.00;;;;;;;9.18;72.03;94541.28;1577531;90;21028;-55
2022/10/22 07:18:42;;;;;;;91.22;45.23;;;;;;;9.27;71.56;94531.77;1576886;90;21051;-54
2022/10/22 07:21:09;;;;;;;90.60;43.50;;;;;;;9.33;71.43;94530.77;1580840;90;21102;-55
2022/10/22 07:23:38;;;;;;;84.20;44.00;;;;;;;9.38;71.15;94532.16;1559212;90;21299;-52
2022/10/22 07:26:07;;;;;;;86.37;43.70;;;;;;;9.43;70.89;94529.63;1575353;90;21011;-54
2022/10/22 07:28:36;;;;;;;96.47;49.70;;;;;;;9.50;70.77;94531.36;1573306;90;21043;-55
2022/10/22 07:31:05;;;;;;;109.48;56.18;;;;;;;9.62;70.73;94537.42;1554477;91;21023;-57
2022/10/22 07:33:32;;;;;;;126.42;52.05;;;;;;;9.78;70.56;94535.87;1574476;89;21006;-54
2022/10/22 07:36:02;;;;;;;105.95;50.78;;;;;;;9.92;70.24;94540.25;1574524;90;22037;-54
2022/10/22 07:38:30;;;;;;;93.17;47.25;;;;;;;10.06;69.69;94543.89;1578688;89;21039;-54
2022/10/22 07:40:57;;;;;;;112.05;51.40;;;;;;;10.17;69.50;94545.63;1559320;90;21069;-53
2022/10/22 07:43:24;;;;;;;90.62;48.70;;;;;;;10.32;69.49;94541.76;1579896;90;21072;-55
2022/10/22 07:45:51;;;;;;;90.85;47.53;;;;;;;10.46;69.11;94538.45;1575526;90;21053;-54
2022/10/22 07:48:18;;;;;;;83.45;39.73;;;;;;;10.60;68.82;94543.41;1575741;90;22098;-54
2022/10/22 07:50:44;;;;;;;71.92;36.73;;;;;;;10.75;68.63;94543.17;1582570;90;20999;-55
2022/10/22 07:53:11;;;;;;;61.37;34.70;;;;;;;10.93;68.53;94539.71;1576312;90;21479;-54
2022/10/22 07:55:38;;;;;;;57.98;31.05;;;;;;;11.12;68.01;94536.57;1573406;90;21054;-53
2022/10/22 07:58:05;;;;;;;62.73;31.77;;;;;;;11.27;67.41;94532.61;1549031;91;20987;-54
2022/10/22 08:00:32;;;;;;;80.12;37.25;;;;;;;11.39;66.95;94533.85;1573350;90;21450;-53
2022/10/22 08:02:59;;;;;;;75.15;39.30;;;;;;;11.53;66.55;94533.27;1560828;90;21644;-54
2022/10/22 08:05:26;;;;;;;83.92;41.58;;;;;;;11.63;66.30;94532.09;1576954;90;21139;-54
2022/10/22 08:07:53;;;;;;;79.30;40.98;;;;;;;11.76;65.66;94530.55;1549218;91;21066;-53
2022/10/22 08:10:19;;;;;;;85.83;42.23;;;;;;;11.82;65.26;94523.97;1578398;90;21084;-55
2022/10/22 08:12:46;;;;;;;71.28;40.92;;;;;;;11.90;65.03;94523.05;1573956;89;21625;-54
2022/10/22 08:15:14;;;;;;;93.40;45.78;;;;;;;11.96;64.62;94525.34;1554573;90;21539;-54
2022/10/22 08:17:41;;;;;;;93.22;49.18;;;;;;;11.99;64.62;94528.55;1576028;90;21018;-53
2022/10/22 08:20:09;;;;;;;102.47;51.40;;;;;;;12.05;64.51;94529.48;1577935;89;21062;-56
2022/10/22 08:22:37;;;;;;;90.28;48.90;;;;;;;12.09;64.41;94529.45;1571060;89;21155;-55
2022/10/22 08:25:05;;;;;;;91.22;48.70;;;;;;;12.15;64.44;94518.57;1553139;90;23315;-54
2022/10/22 08:27:32;;;;;;;95.53;47.17;;;;;;;12.25;65.10;94515.96;1570858;90;20995;-55
2022/10/22 08:29:58;;;;;;;93.25;47.43;;;;;;;12.40;64.94;94513.46;1580157;90;21494;-54
2022/10/22 08:32:25;;;;;;;91.80;48.13;;;;;;;12.58;64.28;94507.89;1578872;90;21474;-55
2022/10/22 08:34:52;;;;;;;93.37;48.55;;;;;;;12.77;63.90;94505.98;1549669;91;21054;-55
2022/10/22 08:37:19;;;;;;;106.63;52.38;;;;;;;13.00;63.28;94501.74;1577407;89;21268;-55
2022/10/22 08:39:45;;;;;;;103.60;54.93;;;;;;;13.22;62.97;94505.77;1555740;91;21056;-54
2022/10/22 08:42:47;;;;;;;103.95;52.67;;;;;;;13.45;62.55;94495.95;1575646;90;21167;-54
2022/10/22 08:45:48;;;;;;;109.12;52.80;;;;;;;13.72;62.12;94497.13;1574048;89;21032;-54
2022/10/22 08:48:45;;;;;;;97.03;48.80;;;;;;;14.04;60.95;94494.86;1575414;90;21140;-53
2022/10/22 08:51:17;;;;;;;95.85;48.10;;;;;;;14.41;59.97;94508.52;1580764;90;21175;-54
2022/10/22 08:54:20;;;;;;;79.80;46.33;;;;;;;14.77;59.28;94502.71;1560788;91;20999;-54
2022/10/22 08:56:55;;;;;;;90.32;44.77;;;;;;;15.09;58.55;94507.85;1575257;90;25804;-54
2022/10/22 08:59:46;;;;;;;87.10;44.60;;;;;;;15.41;57.34;94501.29;1577257;89;21011;-55
2022/10/22 09:02:38;;;;;;;62.13;39.03;;;;;;;15.64;57.12;94505.26;1570858;90;20995;-55
2022/10/22 09:05:28;;;;;;;52.27;31.87;;;;;;;15.96;57.51;94503.37;1570045;90;21308;-53
2022/10/22 09:07:56;;;;;;;79.80;33.85;;;;;;;16.27;55.70;94511.15;1580314;89;21018;-54
2022/10/22 09:10:30;;;;;;;70.52;33.70;;;;;;;16.59;54.21;94509.98;1579139;90;21037;-54
2022/10/22 09:12:58;;;;;;;62.27;27.98;;;;;;;16.91;53.53;94515.70;1572960;90;21070;-55
2022/10/22 09:15:25;;;;;;;55.33;26.25;;;;;;;17.23;52.04;94507.45;1554076;90;21117;-55
2022/10/22 09:18:24;;;;;;;55.83;27.93;;;;;;;17.44;51.66;94506.88;1563173;91;21447;-55
2022/10/22 09:20:57;;;;;;;45.35;27.87;;;;;;;17.66;52.02;94514.59;1565478;91;21586;-57
2022/10/22 09:23:30;;;;;;;46.23;26.87;;;;;;;18.03;51.65;94504.13;1576323;90;21059;-56
2022/10/22 09:25:57;;;;;;;44.85;24.80;;;;;;;18.34;50.98;94506.14;1575720;90;21034;-55
2022/10/22 09:28:24;;;;;;;30.57;15.72;;;;;;;18.67;51.12;94508.35;1552016;89;21074;-54
2022/10/22 09:30:51;;;;;;;28.70;11.00;;;;;;;19.03;49.85;94512.94;1577956;89;21158;-54
2022/10/22 09:33:25;;;;;;;16.97;7.85;;;;;;;19.45;49.21;94514.09;1583264;89;21152;-54
2022/10/22 09:35:57;;;;;;;13.18;7.12;;;;;;;19.84;47.76;94504.98;1579039;90;21002;-55
2022/10/22 09:38:32;;;;;;;18.25;8.30;;;;;;;20.25;47.22;94490.48;1533957;92;21010;-55
2022/10/22 09:41:02;;;;;;;20.48;8.20;;;;;;;20.64;46.13;94490.39;1515655;92;21567;-56
2022/10/22 09:43:29;;;;;;;12.90;8.50;;;;;;;21.11;44.58;94491.84;1530468;92;21196;-56
2022/10/22 09:46:00;;;;;;;10.45;7.95;;;;;;;21.59;44.15;94487.70;1491299;93;21097;-54
2022/10/22 09:48:33;;;;;;;23.35;13.45;;;;;;;22.11;42.91;94489.58;1537882;92;21027;-56
2022/10/22 09:51:22;;;;;;;14.07;8.68;;;;;;;22.65;42.38;94489.50;1578185;90;21120;-55
2022/10/22 09:54:01;;;;;;;22.27;7.37;;;;;;;23.07;41.59;94487.86;1507563;93;21218;-55
2022/10/22 09:56:38;;;;;;;22.93;11.57;;;;;;;23.45;39.91;94490.06;1563535;91;22117;-54
2022/10/22 09:59:05;;;;;;;30.80;26.50;;;;;;;23.73;40.00;94490.31;1576849;90;21165;-56
2022/10/22 10:01:37;;;;;;;13.98;7.55;;;;;;;24.10;38.98;94486.69;1559378;90;20999;-55
2022/10/22 10:04:08;;;;;;;10.53;7.20;;;;;;;24.51;37.85;94488.89;1569618;90;20991;-56
2022/10/22 10:06:37;;;;;;;14.00;6.67;;;;;;;24.77;37.76;94489.62;1538600;92;21015;-54
2022/10/22 10:09:16;;;;;;;14.30;7.83;;;;;;;25.06;36.99;94484.86;1581636;90;21019;-55
2022/10/22 10:12:05;;;;;;;12.88;6.25;;;;;;;25.17;36.71;94488.83;1572136;91;21079;-56
2022/10/22 10:14:45;;;;;;;13.35;8.05;;;;;;;25.27;36.38;94482.87;1575585;90;20978;-54
2022/10/22 10:17:33;;;;;;;11.75;8.05;;;;;;;25.60;36.38;94474.96;1578769;90;21011;-55
2022/10/22 10:20:07;;;;;;;11.25;6.47;;;;;;;25.90;35.36;94485.09;1571935;90;20999;-55
2022/10/22 10:22:58;;;;;;;11.03;7.00;;;;;;;26.18;35.20;94476.74;1576949;90;21856;-54
2022/10/22 10:25:48;;;;;;;14.47;10.40;;;;;;;26.40;35.02;94474.69;1573242;90;20998;-55
2022/10/22 10:28:35;;;;;;;14.25;7.83;;;;;;;26.69;34.20;94480.38;1575719;90;21089;-55
2022/10/22 10:31:30;;;;;;;15.63;9.65;;;;;;;26.96;33.90;94475.97;1545404;92;21034;-55
2022/10/22 10:34:08;;;;;;;19.85;8.53;;;;;;;27.23;32.70;94474.35;1577887;89;21093;-55
2022/10/22 10:37:02;;;;;;;12.80;8.13;;;;;;;27.51;33.12;94472.80;1572125;90;21174;-55
2022/10/22 10:39:47;;;;;;;12.50;6.97;;;;;;;27.45;32.49;94465.17;1525982;91;21055;-54
2022/10/22 10:42:34;;;;;;;11.73;6.80;;;;;;;26.75;33.74;94464.05;1573156;90;21027;-54
2022/10/22 10:45:29;;;;;;;17.25;10.63;;;;;;;26.19;34.36;94465.55;1575540;89;21094;-55
2022/10/22 10:48:24;;;;;;;10.20;6.72;;;;;;;26.26;34.74;94466.24;1569437;90;21007;-55
2022/10/22 10:51:20;;;;;;;21.70;6.97;;;;;;;26.82;33.47;94459.75;1576075;90;21161;-55
2022/10/22 10:54:07;;;;;;;11.85;6.37;;;;;;;27.15;33.21;94462.94;1567531;90;21036;-54
2022/10/22 10:56:50;;;;;;;13.98;8.28;;;;;;;27.43;32.88;94467.78;1547798;90;21022;-54
2022/10/22 10:59:53;;;;;;;19.50;5.90;;;;;;;27.72;32.37;94470.56;1578750;90;21117;-53
2022/10/22 11:02:43;;;;;;;20.17;6.65;;;;;;;28.29;31.65;94458.88;1570293;90;21091;-54
2022/10/22 11:05:37;;;;;;;31.05;8.68;;;;;;;28.73;30.68;94461.52;1579266;90;21215;-55
2022/10/22 11:08:24;;;;;;;15.70;6.70;;;;;;;28.81;30.39;94457.98;1529697;92;21479;-54
2022/10/22 11:11:05;;;;;;;12.30;5.67;;;;;;;28.94;30.10;94463.42;1576593;90;21026;-54
2022/10/22 11:13:46;;;;;;;12.58;6.75;;;;;;;28.93;29.84;94453.42;1577533;90;21050;-55
2022/10/22 11:16:27;;;;;;;12.03;6.20;;;;;;;28.80;30.41;94457.20;1534118;92;21150;-55
2022/10/22 11:19:08;;;;;;;15.85;9.90;;;;;;;28.92;30.30;94457.59;1551644;91;21236;-55
2022/10/22 11:21:50;;;;;;;13.93;6.05;;;;;;;28.72;30.25;94458.56;1534756;91;21039;-55
2022/10/22 11:24:27;;;;;;;19.07;7.37;;;;;;;27.76;31.34;94463.12;1551261;90;21052;-54
2022/10/22 11:27:07;;;;;;;22.42;8.88;;;;;;;26.59;33.37;94456.84;1534589;92;21026;-54
2022/10/22 11:29:42;;;;;;;18.50;7.90;;;;;;;25.52;34.99;94454.44;1571834;91;21132;-55
2022/10/22 11:32:18;;;;;;;16.90;7.53;;;;;;;24.60;36.29;94458.94;1534746;92;22371;-54
2022/10/22 11:34:55;;;;;;;26.52;7.80;;;;;;;23.98;37.38;94460.72;1573671;90;21019;-53
2022/10/22 11:37:33;;;;;;;13.88;6.03;;;;;;;23.40;38.23;94452.98;1573421;90;21470;-55
2022/10/22 11:40:16;;;;;;;18.65;7.35;;;;;;;22.86;39.33;94461.66;1510244;92;21480;-55
2022/10/22 11:42:48;;;;;;;31.15;9.55;;;;;;;22.33;40.32;94458.45;1535391;91;21094;-53
2022/10/22 11:45:20;;;;;;;23.45;12.65;;;;;;;21.86;41.61;94446.05;1566192;90;21520;-53
2022/10/22 11:48:17;;;;;;;17.20;8.70;;;;;;;21.47;42.25;94445.70;1563836;90;21047;-54
2022/10/22 11:50:58;;;;;;;16.05;10.00;;;;;;;21.25;43.12;94438.94;1564766;90;21146;-53